sensor_id;sensor_type;location;lat;lon;timestamp;P1;durP1;ratioP1;P2;durP2;ratioP2
2998;SDS011;1509;51.964;7.628;2022-12-18T00:01:18;29.67;;;20.97;;
2998;SDS011;1509;51.964;7.628;2022-12-18T00:03:49;33.87;;;24.00;;
2998;SDS011;1509;51.964;7.628;2022-12-18T00:06:15;48.23;;;25.07;;
2998;SDS011;1509;51.964;7.628;2022-12-18T00:08:42;48.53;;;25.93;;
2998;SDS011;1509;51.964;7.628;2022-12-18T00:11:10;38.70;;;22.00;;
2998;SDS011;1509;51.964;7.628;2022-12-18T00:13:37;43.67;;;25.67;;
2998;SDS011;1509;51.964;7.628;2022-12-18T00:16:04;42.33;;;23.13;;
2998;SDS011;1509;51.964;7.628;2022-12-18T00:18:31;43.43;;;26.30;;
2998;SDS011;1509;51.964;7.628;2022-12-18T00:21:04;43.87;;;21.90;;
2998;SDS011;1509;51.964;7.628;2022-12-18T00:23:33;41.93;;;21.20;;
2998;SDS011;1509;51.964;7.628;2022-12-18T00:26:01;41.33;;;23.77;;
2998;SDS011;1509;51.964;7.628;2022-12-18T00:28:27;43.83;;;22.63;;
2998;SDS011;1509;51.964;7.628;2022-12-18T00:31:02;41.07;;;21.77;;
2998;SDS011;1509;51.964;7.628;2022-12-18T00:33:33;38.30;;;24.27;;
2998;SDS011;1509;51.964;7.628;2022-12-18T00:36:02;34.00;;;21.57;;
2998;SDS011;1509;51.964;7.628;2022-12-18T00:38:31;34.70;;;21.27;;
2998;SDS011;1509;51.964;7.628;2022-12-18T00:40:56;35.80;;;20.53;;
2998;SDS011;1509;51.964;7.628;2022-12-18T00:43:22;39.30;;;23.20;;
2998;SDS011;1509;51.964;7.628;2022-12-18T00:45:48;32.50;;;21.33;;
2998;SDS011;1509;51.964;7.628;2022-12-18T00:48:14;34.00;;;22.10;;
2998;SDS011;1509;51.964;7.628;2022-12-18T00:50:39;38.97;;;24.23;;
2998;SDS011;1509;51.964;7.628;2022-12-18T00:53:05;44.63;;;23.77;;
2998;SDS011;1509;51.964;7.628;2022-12-18T00:55:31;42.30;;;23.03;;
2998;SDS011;1509;51.964;7.628;2022-12-18T00:57:57;37.43;;;22.97;;
2998;SDS011;1509;51.964;7.628;2022-12-18T01:00:22;47.40;;;22.67;;
2998;SDS011;1509;51.964;7.628;2022-12-18T01:02:48;40.50;;;23.30;;
2998;SDS011;1509;51.964;7.628;2022-12-18T01:05:14;41.43;;;25.47;;
2998;SDS011;1509;51.964;7.628;2022-12-18T01:07:40;41.30;;;25.87;;
2998;SDS011;1509;51.964;7.628;2022-12-18T01:10:06;35.40;;;23.43;;
2998;SDS011;1509;51.964;7.628;2022-12-18T01:12:34;48.77;;;23.13;;
2998;SDS011;1509;51.964;7.628;2022-12-18T01:15:00;33.47;;;21.53;;
2998;SDS011;1509;51.964;7.628;2022-12-18T01:17:26;27.20;;;19.80;;
2998;SDS011;1509;51.964;7.628;2022-12-18T01:19:52;47.37;;;23.63;;
2998;SDS011;1509;51.964;7.628;2022-12-18T01:22:17;30.43;;;22.60;;
2998;SDS011;1509;51.964;7.628;2022-12-18T01:24:43;42.73;;;22.83;;
2998;SDS011;1509;51.964;7.628;2022-12-18T01:27:08;41.90;;;24.23;;
2998;SDS011;1509;51.964;7.628;2022-12-18T01:29:34;37.00;;;18.93;;
2998;SDS011;1509;51.964;7.628;2022-12-18T01:31:59;34.77;;;22.50;;
2998;SDS011;1509;51.964;7.628;2022-12-18T01:34:25;36.10;;;22.07;;
2998;SDS011;1509;51.964;7.628;2022-12-18T01:36:51;32.57;;;20.40;;
2998;SDS011;1509;51.964;7.628;2022-12-18T01:39:17;44.40;;;24.17;;
2998;SDS011;1509;51.964;7.628;2022-12-18T01:41:44;40.63;;;23.33;;
2998;SDS011;1509;51.964;7.628;2022-12-18T01:47:15;36.73;;;22.17;;
2998;SDS011;1509;51.964;7.628;2022-12-18T01:49:46;34.33;;;20.93;;
2998;SDS011;1509;51.964;7.628;2022-12-18T01:52:12;41.40;;;21.70;;
2998;SDS011;1509;51.964;7.628;2022-12-18T01:54:38;35.77;;;22.50;;
2998;SDS011;1509;51.964;7.628;2022-12-18T01:57:04;43.03;;;23.67;;
2998;SDS011;1509;51.964;7.628;2022-12-18T01:59:30;30.77;;;20.20;;
2998;SDS011;1509;51.964;7.628;2022-12-18T02:01:57;32.50;;;21.43;;
2998;SDS011;1509;51.964;7.628;2022-12-18T02:04:24;33.30;;;22.37;;
2998;SDS011;1509;51.964;7.628;2022-12-18T02:06:56;28.37;;;17.87;;
2998;SDS011;1509;51.964;7.628;2022-12-18T02:09:41;31.57;;;19.47;;
2998;SDS011;1509;51.964;7.628;2022-12-18T02:12:23;36.87;;;22.50;;
2998;SDS011;1509;51.964;7.628;2022-12-18T02:17:38;32.93;;;19.53;;
2998;SDS011;1509;51.964;7.628;2022-12-18T02:20:33;31.40;;;18.97;;
2998;SDS011;1509;51.964;7.628;2022-12-18T02:26:07;38.10;;;20.57;;
2998;SDS011;1509;51.964;7.628;2022-12-18T02:28:48;33.50;;;21.07;;
2998;SDS011;1509;51.964;7.628;2022-12-18T02:31:26;35.77;;;22.43;;
2998;SDS011;1509;51.964;7.628;2022-12-18T02:33:56;33.60;;;20.40;;
2998;SDS011;1509;51.964;7.628;2022-12-18T02:36:25;32.60;;;21.80;;
2998;SDS011;1509;51.964;7.628;2022-12-18T02:38:53;32.47;;;21.43;;
2998;SDS011;1509;51.964;7.628;2022-12-18T02:41:21;25.73;;;19.60;;
2998;SDS011;1509;51.964;7.628;2022-12-18T02:43:48;30.23;;;20.70;;
2998;SDS011;1509;51.964;7.628;2022-12-18T02:46:31;37.13;;;19.77;;
2998;SDS011;1509;51.964;7.628;2022-12-18T02:49:05;34.90;;;20.90;;
2998;SDS011;1509;51.964;7.628;2022-12-18T02:51:44;29.70;;;19.70;;
2998;SDS011;1509;51.964;7.628;2022-12-18T02:54:20;27.33;;;18.17;;
2998;SDS011;1509;51.964;7.628;2022-12-18T02:56:59;36.53;;;18.50;;
2998;SDS011;1509;51.964;7.628;2022-12-18T02:59:56;31.53;;;18.93;;
2998;SDS011;1509;51.964;7.628;2022-12-18T03:05:36;28.07;;;18.43;;
2998;SDS011;1509;51.964;7.628;2022-12-18T03:08:06;33.50;;;21.03;;
2998;SDS011;1509;51.964;7.628;2022-12-18T03:11:03;27.50;;;18.63;;
2998;SDS011;1509;51.964;7.628;2022-12-18T03:13:34;25.73;;;17.53;;
2998;SDS011;1509;51.964;7.628;2022-12-18T03:16:14;30.87;;;18.90;;
2998;SDS011;1509;51.964;7.628;2022-12-18T03:18:59;38.70;;;17.23;;
2998;SDS011;1509;51.964;7.628;2022-12-18T03:21:29;33.90;;;18.93;;
2998;SDS011;1509;51.964;7.628;2022-12-18T03:24:00;23.17;;;16.47;;
2998;SDS011;1509;51.964;7.628;2022-12-18T03:26:29;35.10;;;17.60;;
2998;SDS011;1509;51.964;7.628;2022-12-18T03:28:57;27.73;;;19.10;;
2998;SDS011;1509;51.964;7.628;2022-12-18T03:31:29;24.40;;;16.67;;
2998;SDS011;1509;51.964;7.628;2022-12-18T03:33:58;25.00;;;15.07;;
2998;SDS011;1509;51.964;7.628;2022-12-18T03:36:27;19.93;;;13.87;;
2998;SDS011;1509;51.964;7.628;2022-12-18T03:38:58;25.43;;;17.00;;
2998;SDS011;1509;51.964;7.628;2022-12-18T03:44:08;32.93;;;15.47;;
2998;SDS011;1509;51.964;7.628;2022-12-18T03:50:07;20.73;;;13.97;;
2998;SDS011;1509;51.964;7.628;2022-12-18T03:55:01;20.47;;;15.33;;
2998;SDS011;1509;51.964;7.628;2022-12-18T03:57:28;24.93;;;15.73;;
2998;SDS011;1509;51.964;7.628;2022-12-18T04:00:17;22.33;;;15.30;;
2998;SDS011;1509;51.964;7.628;2022-12-18T04:02:45;26.00;;;15.20;;
2998;SDS011;1509;51.964;7.628;2022-12-18T04:05:15;20.10;;;12.10;;
2998;SDS011;1509;51.964;7.628;2022-12-18T04:07:42;25.27;;;14.07;;
2998;SDS011;1509;51.964;7.628;2022-12-18T04:10:09;24.30;;;15.43;;
2998;SDS011;1509;51.964;7.628;2022-12-18T04:12:37;21.00;;;14.27;;
2998;SDS011;1509;51.964;7.628;2022-12-18T04:15:03;23.40;;;14.67;;
2998;SDS011;1509;51.964;7.628;2022-12-18T04:17:29;22.90;;;13.80;;
2998;SDS011;1509;51.964;7.628;2022-12-18T04:19:57;28.77;;;15.70;;
2998;SDS011;1509;51.964;7.628;2022-12-18T04:22:23;23.97;;;14.30;;
2998;SDS011;1509;51.964;7.628;2022-12-18T04:24:49;20.83;;;14.20;;
2998;SDS011;1509;51.964;7.628;2022-12-18T04:27:14;19.67;;;13.60;;
2998;SDS011;1509;51.964;7.628;2022-12-18T04:29:40;22.47;;;13.10;;
2998;SDS011;1509;51.964;7.628;2022-12-18T04:32:05;20.60;;;13.30;;
2998;SDS011;1509;51.964;7.628;2022-12-18T04:34:31;25.67;;;14.40;;
2998;SDS011;1509;51.964;7.628;2022-12-18T04:36:57;23.57;;;15.03;;
2998;SDS011;1509;51.964;7.628;2022-12-18T04:39:23;20.30;;;12.43;;
2998;SDS011;1509;51.964;7.628;2022-12-18T04:41:48;21.37;;;14.13;;
2998;SDS011;1509;51.964;7.628;2022-12-18T04:44:14;21.63;;;13.10;;
2998;SDS011;1509;51.964;7.628;2022-12-18T04:46:39;20.10;;;13.70;;
2998;SDS011;1509;51.964;7.628;2022-12-18T04:49:05;19.23;;;12.90;;
2998;SDS011;1509;51.964;7.628;2022-12-18T04:51:30;28.87;;;15.77;;
2998;SDS011;1509;51.964;7.628;2022-12-18T04:53:56;18.07;;;11.07;;
2998;SDS011;1509;51.964;7.628;2022-12-18T04:56:22;21.47;;;13.10;;
2998;SDS011;1509;51.964;7.628;2022-12-18T04:58:47;17.73;;;14.23;;
2998;SDS011;1509;51.964;7.628;2022-12-18T05:01:14;15.73;;;11.30;;
2998;SDS011;1509;51.964;7.628;2022-12-18T05:03:41;22.03;;;13.13;;
2998;SDS011;1509;51.964;7.628;2022-12-18T05:06:08;23.50;;;11.90;;
2998;SDS011;1509;51.964;7.628;2022-12-18T05:08:34;24.10;;;14.03;;
2998;SDS011;1509;51.964;7.628;2022-12-18T05:11:04;18.90;;;11.77;;
2998;SDS011;1509;51.964;7.628;2022-12-18T05:13:33;17.67;;;11.80;;
2998;SDS011;1509;51.964;7.628;2022-12-18T05:15:59;21.53;;;12.10;;
2998;SDS011;1509;51.964;7.628;2022-12-18T05:18:25;17.40;;;12.87;;
2998;SDS011;1509;51.964;7.628;2022-12-18T05:20:52;21.00;;;12.20;;
2998;SDS011;1509;51.964;7.628;2022-12-18T05:23:21;19.97;;;15.10;;
2998;SDS011;1509;51.964;7.628;2022-12-18T05:25:58;19.60;;;13.70;;
2998;SDS011;1509;51.964;7.628;2022-12-18T05:28:25;17.07;;;11.63;;
2998;SDS011;1509;51.964;7.628;2022-12-18T05:30:54;25.13;;;13.50;;
2998;SDS011;1509;51.964;7.628;2022-12-18T05:33:22;14.20;;;11.43;;
2998;SDS011;1509;51.964;7.628;2022-12-18T05:35:55;22.13;;;11.50;;
2998;SDS011;1509;51.964;7.628;2022-12-18T05:38:23;18.70;;;11.00;;
2998;SDS011;1509;51.964;7.628;2022-12-18T05:40:51;19.40;;;13.77;;
2998;SDS011;1509;51.964;7.628;2022-12-18T05:43:18;17.03;;;11.93;;
2998;SDS011;1509;51.964;7.628;2022-12-18T05:45:44;22.07;;;12.00;;
2998;SDS011;1509;51.964;7.628;2022-12-18T05:48:10;21.70;;;11.30;;
2998;SDS011;1509;51.964;7.628;2022-12-18T05:50:36;17.97;;;12.40;;
2998;SDS011;1509;51.964;7.628;2022-12-18T05:53:03;25.93;;;14.13;;
2998;SDS011;1509;51.964;7.628;2022-12-18T05:55:32;17.43;;;13.13;;
2998;SDS011;1509;51.964;7.628;2022-12-18T05:58:03;21.90;;;11.20;;
2998;SDS011;1509;51.964;7.628;2022-12-18T06:00:30;18.90;;;11.63;;
2998;SDS011;1509;51.964;7.628;2022-12-18T06:02:57;23.13;;;13.43;;
2998;SDS011;1509;51.964;7.628;2022-12-18T06:05:23;20.53;;;14.00;;
2998;SDS011;1509;51.964;7.628;2022-12-18T06:07:49;21.17;;;13.03;;
2998;SDS011;1509;51.964;7.628;2022-12-18T06:10:15;20.57;;;12.17;;
2998;SDS011;1509;51.964;7.628;2022-12-18T06:12:41;23.63;;;12.57;;
2998;SDS011;1509;51.964;7.628;2022-12-18T06:15:06;19.60;;;12.70;;
2998;SDS011;1509;51.964;7.628;2022-12-18T06:17:33;14.63;;;11.20;;
2998;SDS011;1509;51.964;7.628;2022-12-18T06:19:59;25.83;;;14.23;;
2998;SDS011;1509;51.964;7.628;2022-12-18T06:22:25;17.60;;;11.97;;
2998;SDS011;1509;51.964;7.628;2022-12-18T06:24:51;18.60;;;11.17;;
2998;SDS011;1509;51.964;7.628;2022-12-18T06:27:16;16.00;;;11.03;;
2998;SDS011;1509;51.964;7.628;2022-12-18T06:29:43;20.80;;;12.07;;
2998;SDS011;1509;51.964;7.628;2022-12-18T06:32:09;25.70;;;14.37;;
2998;SDS011;1509;51.964;7.628;2022-12-18T06:34:36;16.33;;;11.97;;
2998;SDS011;1509;51.964;7.628;2022-12-18T06:37:02;14.93;;;10.83;;
2998;SDS011;1509;51.964;7.628;2022-12-18T06:39:28;15.20;;;10.60;;
2998;SDS011;1509;51.964;7.628;2022-12-18T06:41:54;17.40;;;12.00;;
2998;SDS011;1509;51.964;7.628;2022-12-18T06:44:19;19.40;;;11.73;;
2998;SDS011;1509;51.964;7.628;2022-12-18T06:46:45;19.83;;;12.60;;
2998;SDS011;1509;51.964;7.628;2022-12-18T06:49:11;17.17;;;10.87;;
2998;SDS011;1509;51.964;7.628;2022-12-18T06:51:37;15.20;;;11.80;;
2998;SDS011;1509;51.964;7.628;2022-12-18T06:54:03;12.37;;;11.03;;
2998;SDS011;1509;51.964;7.628;2022-12-18T06:56:28;17.57;;;11.97;;
2998;SDS011;1509;51.964;7.628;2022-12-18T06:58:57;17.67;;;11.77;;
2998;SDS011;1509;51.964;7.628;2022-12-18T07:01:23;23.20;;;12.53;;
2998;SDS011;1509;51.964;7.628;2022-12-18T07:03:55;13.27;;;8.60;;
2998;SDS011;1509;51.964;7.628;2022-12-18T07:06:22;20.23;;;10.10;;
2998;SDS011;1509;51.964;7.628;2022-12-18T07:08:49;21.57;;;9.60;;
2998;SDS011;1509;51.964;7.628;2022-12-18T07:11:16;11.43;;;9.50;;
2998;SDS011;1509;51.964;7.628;2022-12-18T07:13:42;14.47;;;10.17;;
2998;SDS011;1509;51.964;7.628;2022-12-18T07:16:12;18.20;;;12.03;;
2998;SDS011;1509;51.964;7.628;2022-12-18T07:18:40;13.43;;;9.97;;
2998;SDS011;1509;51.964;7.628;2022-12-18T07:21:07;13.17;;;10.70;;
2998;SDS011;1509;51.964;7.628;2022-12-18T07:23:37;12.03;;;9.93;;
2998;SDS011;1509;51.964;7.628;2022-12-18T07:26:04;12.83;;;9.97;;
2998;SDS011;1509;51.964;7.628;2022-12-18T07:28:32;19.40;;;12.53;;
2998;SDS011;1509;51.964;7.628;2022-12-18T07:31:02;20.23;;;11.70;;
2998;SDS011;1509;51.964;7.628;2022-12-18T07:33:28;15.43;;;10.87;;
2998;SDS011;1509;51.964;7.628;2022-12-18T07:35:54;23.33;;;11.30;;
2998;SDS011;1509;51.964;7.628;2022-12-18T07:38:19;22.33;;;12.10;;
2998;SDS011;1509;51.964;7.628;2022-12-18T07:40:48;21.03;;;10.30;;
2998;SDS011;1509;51.964;7.628;2022-12-18T07:43:19;15.10;;;10.70;;
2998;SDS011;1509;51.964;7.628;2022-12-18T07:45:45;15.13;;;9.20;;
2998;SDS011;1509;51.964;7.628;2022-12-18T07:48:13;16.57;;;10.80;;
2998;SDS011;1509;51.964;7.628;2022-12-18T07:50:39;18.33;;;9.90;;
2998;SDS011;1509;51.964;7.628;2022-12-18T07:53:08;17.80;;;11.43;;
2998;SDS011;1509;51.964;7.628;2022-12-18T07:55:33;13.07;;;9.27;;
2998;SDS011;1509;51.964;7.628;2022-12-18T07:58:03;17.20;;;9.70;;
2998;SDS011;1509;51.964;7.628;2022-12-18T08:00:29;18.60;;;10.10;;
2998;SDS011;1509;51.964;7.628;2022-12-18T08:02:55;18.07;;;10.00;;
2998;SDS011;1509;51.964;7.628;2022-12-18T08:05:21;13.27;;;8.53;;
2998;SDS011;1509;51.964;7.628;2022-12-18T08:07:47;18.60;;;10.87;;
2998;SDS011;1509;51.964;7.628;2022-12-18T08:10:14;15.30;;;9.67;;
2998;SDS011;1509;51.964;7.628;2022-12-18T08:12:39;13.60;;;10.33;;
2998;SDS011;1509;51.964;7.628;2022-12-18T08:15:05;14.40;;;9.57;;
2998;SDS011;1509;51.964;7.628;2022-12-18T08:17:31;14.87;;;8.77;;
2998;SDS011;1509;51.964;7.628;2022-12-18T08:19:57;10.90;;;9.20;;
2998;SDS011;1509;51.964;7.628;2022-12-18T08:22:22;13.53;;;9.23;;
2998;SDS011;1509;51.964;7.628;2022-12-18T08:24:48;16.13;;;9.60;;
2998;SDS011;1509;51.964;7.628;2022-12-18T08:27:14;14.67;;;7.90;;
2998;SDS011;1509;51.964;7.628;2022-12-18T08:29:39;15.00;;;9.90;;
2998;SDS011;1509;51.964;7.628;2022-12-18T08:32:05;15.00;;;9.97;;
2998;SDS011;1509;51.964;7.628;2022-12-18T08:34:31;10.87;;;8.73;;
2998;SDS011;1509;51.964;7.628;2022-12-18T08:36:56;10.93;;;8.23;;
2998;SDS011;1509;51.964;7.628;2022-12-18T08:39:22;11.87;;;8.87;;
2998;SDS011;1509;51.964;7.628;2022-12-18T08:41:47;11.30;;;8.03;;
2998;SDS011;1509;51.964;7.628;2022-12-18T08:44:33;13.93;;;8.77;;
2998;SDS011;1509;51.964;7.628;2022-12-18T08:47:07;14.70;;;7.80;;
2998;SDS011;1509;51.964;7.628;2022-12-18T08:49:33;15.03;;;9.23;;
2998;SDS011;1509;51.964;7.628;2022-12-18T08:52:02;12.67;;;7.80;;
2998;SDS011;1509;51.964;7.628;2022-12-18T08:54:28;19.30;;;9.37;;
2998;SDS011;1509;51.964;7.628;2022-12-18T08:56:53;13.60;;;8.50;;
2998;SDS011;1509;51.964;7.628;2022-12-18T08:59:19;9.60;;;8.60;;
2998;SDS011;1509;51.964;7.628;2022-12-18T09:01:45;12.10;;;8.90;;
2998;SDS011;1509;51.964;7.628;2022-12-18T09:04:11;18.27;;;9.67;;
2998;SDS011;1509;51.964;7.628;2022-12-18T09:06:37;11.60;;;9.00;;
2998;SDS011;1509;51.964;7.628;2022-12-18T09:09:04;10.50;;;8.47;;
2998;SDS011;1509;51.964;7.628;2022-12-18T09:11:30;13.23;;;7.37;;
2998;SDS011;1509;51.964;7.628;2022-12-18T09:13:57;14.57;;;9.80;;
2998;SDS011;1509;51.964;7.628;2022-12-18T09:16:24;17.00;;;8.47;;
2998;SDS011;1509;51.964;7.628;2022-12-18T09:18:50;11.40;;;9.63;;
2998;SDS011;1509;51.964;7.628;2022-12-18T09:21:17;11.33;;;8.60;;
2998;SDS011;1509;51.964;7.628;2022-12-18T09:23:48;12.80;;;8.07;;
2998;SDS011;1509;51.964;7.628;2022-12-18T09:26:19;11.80;;;7.97;;
2998;SDS011;1509;51.964;7.628;2022-12-18T09:28:45;16.10;;;8.40;;
2998;SDS011;1509;51.964;7.628;2022-12-18T09:31:11;10.77;;;7.43;;
2998;SDS011;1509;51.964;7.628;2022-12-18T09:33:37;11.80;;;9.10;;
2998;SDS011;1509;51.964;7.628;2022-12-18T09:36:04;11.17;;;6.97;;
2998;SDS011;1509;51.964;7.628;2022-12-18T09:38:31;14.27;;;8.37;;
2998;SDS011;1509;51.964;7.628;2022-12-18T09:40:59;12.60;;;7.40;;
2998;SDS011;1509;51.964;7.628;2022-12-18T09:43:37;16.63;;;7.63;;
2998;SDS011;1509;51.964;7.628;2022-12-18T09:46:17;10.53;;;6.90;;
2998;SDS011;1509;51.964;7.628;2022-12-18T09:48:52;13.27;;;8.50;;
2998;SDS011;1509;51.964;7.628;2022-12-18T09:51:36;12.27;;;7.93;;
2998;SDS011;1509;51.964;7.628;2022-12-18T09:54:16;9.50;;;7.87;;
2998;SDS011;1509;51.964;7.628;2022-12-18T09:56:50;12.47;;;8.03;;
2998;SDS011;1509;51.964;7.628;2022-12-18T09:59:21;15.27;;;8.57;;
2998;SDS011;1509;51.964;7.628;2022-12-18T10:01:47;12.50;;;8.20;;
2998;SDS011;1509;51.964;7.628;2022-12-18T10:04:13;14.03;;;8.80;;
2998;SDS011;1509;51.964;7.628;2022-12-18T10:09:32;12.37;;;7.60;;
2998;SDS011;1509;51.964;7.628;2022-12-18T10:23:21;10.03;;;8.00;;
2998;SDS011;1509;51.964;7.628;2022-12-18T10:26:07;10.90;;;8.00;;
2998;SDS011;1509;51.964;7.628;2022-12-18T10:28:38;11.07;;;6.60;;
2998;SDS011;1509;51.964;7.628;2022-12-18T10:31:26;12.50;;;7.70;;
2998;SDS011;1509;51.964;7.628;2022-12-18T10:33:53;11.77;;;7.67;;
2998;SDS011;1509;51.964;7.628;2022-12-18T10:36:20;12.13;;;7.20;;
2998;SDS011;1509;51.964;7.628;2022-12-18T10:38:45;18.53;;;8.13;;
2998;SDS011;1509;51.964;7.628;2022-12-18T10:43:43;9.97;;;8.50;;
2998;SDS011;1509;51.964;7.628;2022-12-18T10:51:29;12.50;;;9.00;;
2998;SDS011;1509;51.964;7.628;2022-12-18T10:54:13;16.37;;;8.00;;
2998;SDS011;1509;51.964;7.628;2022-12-18T10:56:41;14.13;;;9.23;;
2998;SDS011;1509;51.964;7.628;2022-12-18T10:59:12;10.73;;;7.33;;
2998;SDS011;1509;51.964;7.628;2022-12-18T11:01:55;14.30;;;9.13;;
2998;SDS011;1509;51.964;7.628;2022-12-18T11:04:23;13.40;;;8.97;;
2998;SDS011;1509;51.964;7.628;2022-12-18T11:06:58;11.30;;;7.47;;
2998;SDS011;1509;51.964;7.628;2022-12-18T11:09:29;15.20;;;7.90;;
2998;SDS011;1509;51.964;7.628;2022-12-18T11:12:00;15.80;;;8.20;;
2998;SDS011;1509;51.964;7.628;2022-12-18T11:14:32;12.83;;;7.97;;
2998;SDS011;1509;51.964;7.628;2022-12-18T11:17:16;11.50;;;8.53;;
2998;SDS011;1509;51.964;7.628;2022-12-18T11:19:44;14.53;;;8.70;;
2998;SDS011;1509;51.964;7.628;2022-12-18T11:22:26;13.90;;;8.13;;
2998;SDS011;1509;51.964;7.628;2022-12-18T11:27:37;9.83;;;6.73;;
2998;SDS011;1509;51.964;7.628;2022-12-18T11:30:09;11.50;;;7.33;;
2998;SDS011;1509;51.964;7.628;2022-12-18T11:32:41;9.63;;;7.13;;
2998;SDS011;1509;51.964;7.628;2022-12-18T11:35:19;10.20;;;7.50;;
2998;SDS011;1509;51.964;7.628;2022-12-18T11:37:53;10.60;;;9.20;;
2998;SDS011;1509;51.964;7.628;2022-12-18T11:40:35;14.80;;;9.10;;
2998;SDS011;1509;51.964;7.628;2022-12-18T11:43:10;11.20;;;8.63;;
2998;SDS011;1509;51.964;7.628;2022-12-18T11:46:26;10.80;;;7.87;;
2998;SDS011;1509;51.964;7.628;2022-12-18T11:48:57;13.63;;;8.30;;
2998;SDS011;1509;51.964;7.628;2022-12-18T11:51:43;13.10;;;7.77;;
2998;SDS011;1509;51.964;7.628;2022-12-18T11:54:16;11.90;;;7.53;;
2998;SDS011;1509;51.964;7.628;2022-12-18T11:56:44;15.00;;;8.77;;
2998;SDS011;1509;51.964;7.628;2022-12-18T12:01:57;12.60;;;9.57;;
2998;SDS011;1509;51.964;7.628;2022-12-18T12:13:41;10.70;;;7.23;;
2998;SDS011;1509;51.964;7.628;2022-12-18T12:24:25;11.67;;;8.67;;
2998;SDS011;1509;51.964;7.628;2022-12-18T12:27:29;12.67;;;9.00;;
2998;SDS011;1509;51.964;7.628;2022-12-18T12:30:22;15.17;;;7.80;;
2998;SDS011;1509;51.964;7.628;2022-12-18T12:33:09;14.17;;;9.20;;
2998;SDS011;1509;51.964;7.628;2022-12-18T12:36:08;14.20;;;9.80;;
2998;SDS011;1509;51.964;7.628;2022-12-18T12:38:51;14.33;;;9.80;;
2998;SDS011;1509;51.964;7.628;2022-12-18T12:41:26;11.80;;;8.73;;
2998;SDS011;1509;51.964;7.628;2022-12-18T12:44:15;16.30;;;9.17;;
2998;SDS011;1509;51.964;7.628;2022-12-18T12:46:49;12.73;;;8.53;;
2998;SDS011;1509;51.964;7.628;2022-12-18T12:49:20;15.23;;;10.00;;
2998;SDS011;1509;51.964;7.628;2022-12-18T12:51:53;17.20;;;8.97;;
2998;SDS011;1509;51.964;7.628;2022-12-18T12:54:25;13.53;;;9.83;;
2998;SDS011;1509;51.964;7.628;2022-12-18T12:57:04;13.73;;;9.20;;
2998;SDS011;1509;51.964;7.628;2022-12-18T13:02:20;11.43;;;8.17;;
2998;SDS011;1509;51.964;7.628;2022-12-18T13:04:58;12.63;;;8.40;;
2998;SDS011;1509;51.964;7.628;2022-12-18T13:07:31;12.63;;;9.77;;
2998;SDS011;1509;51.964;7.628;2022-12-18T13:12:52;13.23;;;8.77;;
2998;SDS011;1509;51.964;7.628;2022-12-18T13:15:23;13.57;;;8.50;;
2998;SDS011;1509;51.964;7.628;2022-12-18T13:18:34;13.30;;;8.50;;
2998;SDS011;1509;51.964;7.628;2022-12-18T13:20:45;12.47;;;8.50;;
2998;SDS011;1509;51.964;7.628;2022-12-18T13:25:49;9.80;;;7.90;;
2998;SDS011;1509;51.964;7.628;2022-12-18T13:28:18;15.17;;;10.73;;
2998;SDS011;1509;51.964;7.628;2022-12-18T13:30:57;13.57;;;9.13;;
2998;SDS011;1509;51.964;7.628;2022-12-18T13:36:15;12.80;;;7.87;;
2998;SDS011;1509;51.964;7.628;2022-12-18T13:38:47;15.80;;;8.80;;
2998;SDS011;1509;51.964;7.628;2022-12-18T13:41:32;10.17;;;7.53;;
2998;SDS011;1509;51.964;7.628;2022-12-18T13:46:58;13.60;;;8.93;;
2998;SDS011;1509;51.964;7.628;2022-12-18T13:51:56;12.27;;;9.27;;
2998;SDS011;1509;51.964;7.628;2022-12-18T13:54:28;15.20;;;8.57;;
2998;SDS011;1509;51.964;7.628;2022-12-18T13:57:28;15.77;;;7.90;;
2998;SDS011;1509;51.964;7.628;2022-12-18T13:59:54;13.77;;;8.27;;
2998;SDS011;1509;51.964;7.628;2022-12-18T14:02:22;14.53;;;8.60;;
2998;SDS011;1509;51.964;7.628;2022-12-18T14:04:50;12.70;;;9.07;;
2998;SDS011;1509;51.964;7.628;2022-12-18T14:07:21;12.30;;;7.50;;
2998;SDS011;1509;51.964;7.628;2022-12-18T14:09:50;12.60;;;9.27;;
2998;SDS011;1509;51.964;7.628;2022-12-18T14:12:25;14.07;;;8.37;;
2998;SDS011;1509;51.964;7.628;2022-12-18T14:15:22;24.93;;;14.90;;
2998;SDS011;1509;51.964;7.628;2022-12-18T14:17:50;14.40;;;8.77;;
2998;SDS011;1509;51.964;7.628;2022-12-18T14:20:17;12.90;;;10.10;;
2998;SDS011;1509;51.964;7.628;2022-12-18T14:22:44;10.80;;;8.00;;
2998;SDS011;1509;51.964;7.628;2022-12-18T14:27:37;9.30;;;7.67;;
2998;SDS011;1509;51.964;7.628;2022-12-18T14:33:26;12.80;;;6.87;;
2998;SDS011;1509;51.964;7.628;2022-12-18T14:35:57;14.60;;;8.50;;
2998;SDS011;1509;51.964;7.628;2022-12-18T14:38:26;13.10;;;7.93;;
2998;SDS011;1509;51.964;7.628;2022-12-18T14:43:28;9.80;;;8.17;;
2998;SDS011;1509;51.964;7.628;2022-12-18T14:45:56;14.67;;;8.20;;
2998;SDS011;1509;51.964;7.628;2022-12-18T14:51:21;14.47;;;7.80;;
2998;SDS011;1509;51.964;7.628;2022-12-18T14:54:01;15.43;;;8.10;;
2998;SDS011;1509;51.964;7.628;2022-12-18T14:59:02;10.07;;;6.83;;
2998;SDS011;1509;51.964;7.628;2022-12-18T15:01:39;9.13;;;6.50;;
2998;SDS011;1509;51.964;7.628;2022-12-18T15:09:41;9.87;;;6.10;;
2998;SDS011;1509;51.964;7.628;2022-12-18T15:15:01;11.93;;;7.17;;
2998;SDS011;1509;51.964;7.628;2022-12-18T15:17:28;9.63;;;7.50;;
2998;SDS011;1509;51.964;7.628;2022-12-18T15:19:58;13.80;;;8.30;;
2998;SDS011;1509;51.964;7.628;2022-12-18T15:22:27;15.07;;;8.13;;
2998;SDS011;1509;51.964;7.628;2022-12-18T15:24:55;12.90;;;6.37;;
2998;SDS011;1509;51.964;7.628;2022-12-18T15:27:33;12.30;;;8.00;;
2998;SDS011;1509;51.964;7.628;2022-12-18T15:32:34;9.33;;;6.80;;
2998;SDS011;1509;51.964;7.628;2022-12-18T15:37:42;9.67;;;7.10;;
2998;SDS011;1509;51.964;7.628;2022-12-18T15:40:27;14.03;;;7.97;;
2998;SDS011;1509;51.964;7.628;2022-12-18T15:42:53;14.20;;;6.33;;
2998;SDS011;1509;51.964;7.628;2022-12-18T15:45:39;9.67;;;6.33;;
2998;SDS011;1509;51.964;7.628;2022-12-18T15:48:21;11.10;;;8.37;;
2998;SDS011;1509;51.964;7.628;2022-12-18T15:50:47;10.30;;;6.90;;
2998;SDS011;1509;51.964;7.628;2022-12-18T15:53:15;9.57;;;6.17;;
2998;SDS011;1509;51.964;7.628;2022-12-18T15:55:40;12.80;;;7.37;;
2998;SDS011;1509;51.964;7.628;2022-12-18T15:58:25;12.70;;;6.47;;
2998;SDS011;1509;51.964;7.628;2022-12-18T16:00:50;11.70;;;6.47;;
2998;SDS011;1509;51.964;7.628;2022-12-18T16:03:16;12.13;;;6.50;;
2998;SDS011;1509;51.964;7.628;2022-12-18T16:05:42;11.60;;;7.63;;
2998;SDS011;1509;51.964;7.628;2022-12-18T16:08:07;13.40;;;7.63;;
2998;SDS011;1509;51.964;7.628;2022-12-18T16:10:33;12.90;;;6.83;;
2998;SDS011;1509;51.964;7.628;2022-12-18T16:13:00;9.20;;;6.77;;
2998;SDS011;1509;51.964;7.628;2022-12-18T16:15:25;9.43;;;6.37;;
2998;SDS011;1509;51.964;7.628;2022-12-18T16:17:51;9.30;;;6.30;;
2998;SDS011;1509;51.964;7.628;2022-12-18T16:20:21;11.93;;;7.00;;
2998;SDS011;1509;51.964;7.628;2022-12-18T16:22:47;10.10;;;5.67;;
2998;SDS011;1509;51.964;7.628;2022-12-18T16:25:21;9.57;;;6.57;;
2998;SDS011;1509;51.964;7.628;2022-12-18T16:27:48;13.67;;;6.73;;
2998;SDS011;1509;51.964;7.628;2022-12-18T16:30:24;12.00;;;7.00;;
2998;SDS011;1509;51.964;7.628;2022-12-18T16:32:52;12.13;;;7.00;;
2998;SDS011;1509;51.964;7.628;2022-12-18T16:35:18;12.60;;;8.00;;
2998;SDS011;1509;51.964;7.628;2022-12-18T16:37:47;10.57;;;7.27;;
2998;SDS011;1509;51.964;7.628;2022-12-18T16:40:14;11.57;;;7.30;;
2998;SDS011;1509;51.964;7.628;2022-12-18T16:42:42;8.73;;;6.80;;
2998;SDS011;1509;51.964;7.628;2022-12-18T16:45:09;13.50;;;8.70;;
2998;SDS011;1509;51.964;7.628;2022-12-18T16:47:37;10.67;;;6.73;;
2998;SDS011;1509;51.964;7.628;2022-12-18T16:50:03;10.83;;;6.80;;
2998;SDS011;1509;51.964;7.628;2022-12-18T16:52:30;12.43;;;7.13;;
2998;SDS011;1509;51.964;7.628;2022-12-18T16:54:56;10.70;;;8.00;;
2998;SDS011;1509;51.964;7.628;2022-12-18T16:57:21;10.87;;;7.67;;
2998;SDS011;1509;51.964;7.628;2022-12-18T16:59:48;10.30;;;6.77;;
2998;SDS011;1509;51.964;7.628;2022-12-18T17:02:20;8.70;;;6.53;;